createdAt,value
2023-05-10T00:01:09.480Z,3.95
2023-05-10T00:04:10.805Z,3.40
2023-05-10T00:07:12.183Z,3.03
2023-05-10T00:10:13.679Z,3.55
2023-05-10T00:13:15.144Z,2.93
2023-05-10T00:16:16.533Z,3.83
2023-05-10T00:19:17.832Z,3.42
2023-05-10T00:22:19.125Z,2.80
2023-05-10T00:25:20.442Z,4.25
2023-05-10T00:28:21.738Z,3.33
2023-05-10T00:31:23.083Z,3.25
2023-05-10T00:34:24.418Z,2.75
2023-05-10T00:37:25.696Z,2.97
2023-05-10T00:40:27.007Z,4.35
2023-05-10T00:43:28.293Z,2.90
2023-05-10T00:46:29.747Z,3.80
2023-05-10T00:49:31.097Z,3.60
2023-05-10T00:52:32.422Z,3.20
2023-05-10T00:55:33.733Z,3.15
2023-05-10T00:58:35.023Z,2.93
2023-05-10T01:01:36.360Z,2.95
2023-05-10T01:04:37.721Z,3.67
2023-05-10T01:07:39.061Z,3.17
2023-05-10T01:10:40.336Z,2.70
2023-05-10T01:13:41.621Z,3.97
2023-05-10T01:16:42.934Z,3.65
2023-05-10T01:19:44.228Z,3.50
2023-05-10T01:22:45.541Z,2.58
2023-05-10T01:25:46.830Z,3.50
2023-05-10T01:28:48.112Z,2.87
2023-05-10T01:31:49.469Z,2.90
2023-05-10T01:34:50.813Z,3.05
2023-05-10T01:37:52.123Z,3.40
2023-05-10T01:40:53.428Z,3.33
2023-05-10T01:43:54.720Z,3.73
2023-05-10T01:46:56.034Z,2.78
2023-05-10T01:49:57.338Z,3.38
2023-05-10T01:52:58.651Z,3.72
2023-05-10T01:55:59.944Z,3.42
2023-05-10T01:59:01.251Z,3.63
2023-05-10T02:02:02.539Z,3.00
2023-05-10T02:05:03.839Z,3.42
2023-05-10T02:08:05.138Z,3.47
2023-05-10T02:11:06.435Z,3.30
2023-05-10T02:14:07.736Z,2.97
2023-05-10T02:17:09.036Z,3.50
2023-05-10T02:20:10.345Z,2.88
2023-05-10T02:23:11.645Z,2.60
2023-05-10T02:26:12.962Z,2.80
2023-05-10T02:29:14.270Z,3.07
2023-05-10T02:32:15.858Z,3.22
2023-05-10T02:35:17.229Z,2.97
2023-05-10T02:38:18.545Z,3.88
2023-05-10T02:41:19.842Z,2.83
2023-05-10T02:44:21.149Z,3.20
2023-05-10T02:47:22.458Z,3.17
2023-05-10T02:50:23.765Z,3.55
2023-05-10T02:53:25.077Z,3.22
2023-05-10T02:56:26.370Z,2.90
2023-05-10T02:59:27.671Z,2.67
2023-05-10T03:02:28.979Z,2.80
2023-05-10T03:05:30.297Z,3.00
2023-05-10T03:08:31.598Z,4.60
2023-05-10T03:11:32.902Z,3.13
2023-05-10T03:14:34.202Z,3.00
2023-05-10T03:17:35.520Z,2.97
2023-05-10T03:20:36.848Z,2.97
2023-05-10T03:23:38.144Z,3.28
2023-05-10T03:26:39.498Z,3.28
2023-05-10T03:29:40.807Z,3.23
2023-05-10T03:32:42.122Z,2.67
2023-05-10T03:35:43.427Z,3.90
2023-05-10T03:38:44.726Z,3.58
2023-05-10T03:41:46.052Z,4.07
2023-05-10T03:44:47.374Z,3.00
2023-05-10T03:47:48.691Z,3.35
2023-05-10T03:50:50.000Z,2.83
2023-05-10T03:53:51.298Z,3.83
2023-05-10T03:56:53.782Z,2.90
2023-05-10T03:59:55.083Z,3.10
2023-05-10T04:02:56.479Z,3.40
2023-05-10T04:05:57.886Z,5.07
2023-05-10T04:08:59.189Z,2.70
2023-05-10T04:12:00.510Z,3.72
2023-05-10T04:15:01.825Z,3.30
2023-05-10T04:18:03.128Z,3.70
2023-05-10T04:21:04.442Z,2.92
2023-05-10T04:24:05.741Z,4.10
2023-05-10T04:27:07.037Z,4.40
2023-05-10T04:30:08.357Z,3.73
2023-05-10T04:33:09.669Z,2.78
2023-05-10T04:36:10.960Z,3.45
2023-05-10T04:39:12.331Z,3.30
2023-05-10T04:42:13.622Z,3.10
2023-05-10T04:45:14.928Z,3.27
2023-05-10T04:48:16.227Z,3.42
2023-05-10T04:51:17.524Z,3.95
2023-05-10T04:54:18.809Z,3.08
2023-05-10T04:57:20.081Z,3.20
2023-05-10T05:00:21.381Z,3.40
2023-05-10T05:03:22.762Z,2.70
2023-05-10T05:06:24.128Z,3.30
2023-05-10T05:09:25.426Z,3.88
2023-05-10T05:12:26.756Z,2.95
2023-05-10T05:15:28.068Z,4.90
2023-05-10T05:18:29.370Z,3.25
2023-05-10T05:21:30.677Z,3.65
2023-05-10T05:24:31.986Z,3.90
2023-05-10T05:27:33.294Z,12.07
2023-05-10T05:30:34.637Z,14.17
2023-05-10T05:33:35.952Z,16.33
2023-05-10T05:36:37.680Z,12.75
2023-05-10T05:39:39.044Z,9.98
2023-05-10T05:42:40.344Z,10.50
2023-05-10T05:45:41.689Z,5.77
2023-05-10T05:48:43.001Z,32.55
2023-05-10T05:51:44.418Z,47.42
2023-05-10T05:54:45.703Z,36.30
2023-05-10T05:57:47.111Z,27.95
2023-05-10T06:00:48.409Z,23.60
2023-05-10T06:03:50.982Z,44.65
2023-05-10T06:06:53.969Z,35.80
2023-05-10T06:09:55.283Z,34.08
2023-05-10T06:12:56.601Z,33.47
2023-05-10T06:15:57.934Z,29.60
2023-05-10T06:18:59.260Z,27.13
2023-05-10T06:22:00.608Z,20.67
2023-05-10T06:25:01.927Z,26.17
2023-05-10T06:28:03.261Z,25.75
2023-05-10T06:31:04.570Z,24.60
2023-05-10T06:34:05.892Z,23.02
2023-05-10T06:37:07.209Z,24.98
2023-05-10T06:40:08.585Z,30.40
2023-05-10T06:43:09.915Z,23.88
2023-05-10T06:46:11.257Z,29.33
2023-05-10T06:49:12.639Z,26.58
2023-05-10T06:52:13.978Z,28.35
2023-05-10T06:55:15.432Z,23.80
2023-05-10T06:58:16.820Z,22.00
2023-05-10T07:01:18.295Z,18.67
2023-05-10T07:04:19.810Z,24.83
2023-05-10T07:07:21.121Z,32.10
2023-05-10T07:10:22.430Z,19.75
2023-05-10T07:13:23.834Z,18.45
2023-05-10T07:16:25.371Z,12.13
2023-05-10T07:19:26.741Z,12.43
2023-05-10T07:22:28.056Z,20.48
2023-05-10T07:25:29.381Z,25.83
2023-05-10T07:28:30.701Z,36.53
2023-05-10T07:31:32.042Z,21.57
2023-05-10T07:34:33.664Z,11.27
2023-05-10T07:37:35.001Z,16.52
2023-05-10T07:40:36.525Z,17.27
2023-05-10T07:43:37.832Z,16.05
2023-05-10T07:46:39.165Z,17.70
2023-05-10T07:49:40.478Z,17.48
2023-05-10T07:52:41.802Z,11.82
2023-05-10T07:55:43.123Z,14.27
2023-05-10T07:58:44.454Z,19.42
2023-05-10T08:01:45.769Z,16.67
2023-05-10T08:04:47.099Z,21.95
2023-05-10T08:07:48.454Z,21.35
2023-05-10T08:10:49.753Z,16.40
2023-05-10T08:13:51.052Z,10.63
2023-05-10T08:16:52.360Z,10.17
2023-05-10T08:19:53.690Z,25.33
2023-05-10T08:22:54.982Z,14.88
2023-05-10T08:25:56.321Z,22.77
2023-05-10T08:28:57.603Z,20.20
2023-05-10T08:31:58.907Z,12.33
2023-05-10T08:35:00.248Z,13.23
2023-05-10T08:38:01.562Z,13.80
2023-05-10T08:41:02.863Z,34.42
2023-05-10T08:44:04.169Z,17.48
2023-05-10T08:47:05.485Z,26.93
2023-05-10T08:50:06.977Z,27.60
2023-05-10T08:53:08.327Z,24.40
2023-05-10T08:56:09.649Z,17.42
2023-05-10T08:59:10.940Z,16.55
2023-05-10T09:02:12.256Z,17.57
2023-05-10T09:05:13.666Z,24.20
2023-05-10T09:08:15.002Z,11.55
2023-05-10T09:11:16.308Z,21.42
2023-05-10T09:14:17.621Z,14.27
2023-05-10T09:17:18.983Z,11.53
2023-05-10T09:20:20.330Z,12.65
2023-05-10T09:23:21.646Z,7.82
2023-05-10T09:26:22.948Z,9.95
2023-05-10T09:29:24.252Z,6.22
2023-05-10T09:32:25.567Z,8.13
2023-05-10T09:35:28.829Z,12.68
2023-05-10T09:38:31.036Z,7.70
2023-05-10T09:41:32.356Z,7.40
2023-05-10T09:44:33.670Z,6.07
2023-05-10T09:47:34.999Z,5.83
2023-05-10T09:50:36.317Z,3.95
2023-05-10T09:53:37.623Z,6.30
2023-05-10T09:56:38.910Z,5.13
2023-05-10T09:59:40.215Z,6.50
2023-05-10T10:02:41.598Z,6.73
2023-05-10T10:05:42.956Z,13.77
2023-05-10T10:08:44.253Z,16.65
2023-05-10T10:11:45.546Z,25.15
2023-05-10T10:14:46.889Z,17.35
2023-05-10T10:17:48.260Z,14.87
2023-05-10T10:20:49.561Z,9.32
2023-05-10T10:23:50.861Z,8.38
2023-05-10T10:26:52.140Z,11.25
2023-05-10T10:29:53.433Z,6.88
2023-05-10T10:32:54.762Z,11.20
2023-05-10T10:35:56.101Z,8.00
2023-05-10T10:38:57.418Z,9.07
2023-05-10T10:41:58.726Z,4.95
2023-05-10T10:45:00.035Z,10.75
2023-05-10T10:48:01.370Z,9.23
2023-05-10T10:51:02.806Z,7.78
2023-05-10T10:54:04.119Z,4.30
2023-05-10T10:57:05.446Z,9.70
2023-05-10T11:00:06.725Z,5.65
2023-05-10T11:03:08.274Z,6.60
2023-05-10T11:06:09.761Z,7.35
2023-05-10T11:09:11.066Z,6.05
2023-05-10T11:12:12.360Z,6.13
2023-05-10T11:15:13.729Z,7.88
2023-05-10T11:18:15.062Z,7.27
2023-05-10T11:21:16.387Z,6.22
2023-05-10T11:24:17.679Z,5.00
2023-05-10T11:27:18.992Z,7.50
2023-05-10T11:30:20.562Z,4.45
2023-05-10T11:33:22.158Z,6.30
2023-05-10T11:36:23.464Z,6.25
2023-05-10T11:39:24.765Z,8.98
2023-05-10T11:42:26.059Z,6.00
2023-05-10T11:45:27.394Z,6.38
2023-05-10T11:48:28.711Z,4.70
2023-05-10T11:51:30.030Z,7.28
2023-05-10T11:54:31.425Z,9.13
2023-05-10T11:57:32.769Z,6.93
2023-05-10T12:00:34.064Z,5.30
2023-05-10T12:03:35.469Z,5.83
2023-05-10T12:06:36.924Z,6.30
2023-05-10T12:09:43.760Z,10.40
2023-05-10T12:12:45.285Z,7.35
2023-05-10T12:15:46.582Z,8.35
2023-05-10T12:18:47.891Z,17.03
2023-05-10T12:21:49.241Z,7.15
2023-05-10T12:24:50.552Z,8.38
2023-05-10T12:27:51.834Z,11.20
2023-05-10T12:30:53.089Z,11.43
2023-05-10T12:33:54.361Z,8.33
2023-05-10T12:36:55.620Z,9.60
2023-05-10T12:39:56.822Z,14.63
2023-05-10T12:42:58.148Z,11.32
2023-05-10T12:45:59.480Z,8.70
2023-05-10T12:49:08.443Z,9.47
2023-05-10T12:52:10.924Z,5.95
2023-05-10T12:55:12.197Z,8.95
2023-05-10T12:58:17.987Z,7.95
2023-05-10T13:01:29.028Z,9.00
2023-05-10T13:04:30.385Z,7.03
2023-05-10T13:07:31.683Z,8.80
2023-05-10T13:10:32.943Z,8.82
2023-05-10T13:13:34.186Z,6.43
2023-05-10T13:16:35.592Z,8.40
2023-05-10T13:19:36.900Z,7.27
2023-05-10T13:22:40.498Z,7.75
2023-05-10T13:25:42.142Z,6.47
2023-05-10T13:28:43.402Z,8.57
2023-05-10T13:31:44.739Z,8.82
2023-05-10T13:34:46.035Z,6.10
2023-05-10T13:37:47.299Z,5.57
2023-05-10T13:40:48.591Z,11.18
2023-05-10T13:43:49.891Z,5.70
2023-05-10T13:46:51.266Z,8.50
2023-05-10T13:49:52.556Z,4.70
2023-05-10T13:52:53.849Z,10.27
2023-05-10T13:55:55.115Z,8.38
2023-05-10T13:58:56.351Z,5.95
2023-05-10T14:01:57.649Z,8.05
2023-05-10T14:04:58.939Z,4.37
2023-05-10T14:08:00.213Z,10.43
2023-05-10T14:11:01.481Z,11.25
2023-05-10T14:14:02.697Z,8.98
2023-05-10T14:17:03.969Z,6.00
2023-05-10T14:20:05.309Z,8.83
2023-05-10T14:23:06.614Z,12.90
2023-05-10T14:26:07.866Z,12.90
2023-05-10T14:29:10.751Z,11.20
2023-05-10T14:32:13.670Z,12.77
2023-05-10T14:35:16.806Z,20.23
2023-05-10T14:38:19.818Z,10.30
2023-05-10T14:41:21.066Z,24.52
2023-05-10T14:44:22.323Z,21.95
2023-05-10T14:47:23.676Z,16.98
2023-05-10T14:50:35.837Z,19.13
2023-05-10T14:53:38.577Z,21.13
2023-05-10T14:56:39.819Z,20.25
2023-05-10T14:59:41.072Z,19.23
2023-05-10T15:02:42.814Z,11.07
2023-05-10T15:05:44.575Z,14.57
2023-05-10T15:08:45.823Z,10.32
2023-05-10T15:11:47.056Z,13.98
2023-05-10T15:14:48.349Z,13.82
2023-05-10T15:17:49.719Z,19.83
2023-05-10T15:20:51.017Z,15.73
2023-05-10T15:23:52.260Z,11.10
2023-05-10T15:26:53.496Z,13.30
2023-05-10T15:29:54.789Z,10.18
2023-05-10T15:32:56.086Z,9.85
2023-05-10T15:35:57.378Z,8.77
2023-05-10T15:38:58.627Z,16.52
2023-05-10T15:41:59.880Z,12.95
2023-05-10T15:45:01.118Z,7.82
2023-05-10T15:48:02.397Z,8.50
2023-05-10T15:51:03.680Z,10.37
2023-05-10T15:54:07.773Z,10.00
2023-05-10T15:57:09.666Z,8.88
2023-05-10T16:00:11.001Z,14.52
2023-05-10T16:03:12.357Z,8.23
2023-05-10T16:06:13.684Z,13.00
2023-05-10T16:09:14.985Z,18.52
2023-05-10T16:12:16.283Z,18.70
2023-05-10T16:15:17.731Z,8.88
2023-05-10T16:18:19.332Z,7.05
2023-05-10T16:21:20.673Z,5.97
2023-05-10T16:24:21.969Z,6.18
2023-05-10T16:27:23.275Z,6.55
2023-05-10T16:30:24.563Z,10.63
2023-05-10T16:33:25.849Z,9.88
2023-05-10T16:36:27.477Z,9.50
2023-05-10T16:39:28.847Z,7.53
2023-05-10T16:42:30.165Z,6.93
2023-05-10T16:45:31.461Z,7.63
2023-05-10T16:48:32.765Z,5.30
2023-05-10T16:51:34.077Z,7.93
2023-05-10T16:54:35.398Z,7.13
2023-05-10T16:57:36.727Z,5.72
2023-05-10T17:00:38.046Z,10.82
2023-05-10T17:03:39.432Z,6.80
2023-05-10T17:06:40.788Z,8.57
2023-05-10T17:09:42.104Z,6.07
2023-05-10T17:12:43.429Z,5.95
2023-05-10T17:15:44.824Z,7.07
2023-05-10T17:18:46.206Z,9.43
2023-05-10T17:21:47.524Z,5.90
2023-05-10T17:24:48.826Z,5.93
2023-05-10T17:27:50.131Z,5.32
2023-05-10T17:30:51.428Z,7.07
2023-05-10T17:33:52.746Z,6.40
2023-05-10T17:36:54.054Z,6.40
2023-05-10T17:39:55.339Z,5.10
2023-05-10T17:42:56.629Z,6.20
2023-05-10T17:45:57.986Z,4.82
2023-05-10T17:48:59.310Z,6.40
2023-05-10T17:52:00.597Z,5.90
2023-05-10T17:55:01.951Z,4.60
2023-05-10T17:58:03.300Z,7.22
2023-05-10T18:01:04.693Z,8.57
2023-05-10T18:04:06.038Z,7.28
2023-05-10T18:07:07.441Z,5.10
2023-05-10T18:10:08.743Z,5.75
2023-05-10T18:13:10.067Z,6.15
2023-05-10T18:16:11.392Z,6.65
2023-05-10T18:19:12.726Z,6.35
2023-05-10T18:22:14.046Z,3.93
2023-05-10T18:25:15.442Z,4.97
2023-05-10T18:28:16.889Z,6.93
2023-05-10T18:31:18.204Z,5.93
2023-05-10T18:34:19.513Z,5.00
2023-05-10T18:37:20.808Z,5.20
2023-05-10T18:40:22.128Z,5.30
2023-05-10T18:43:23.435Z,5.38
2023-05-10T18:46:24.755Z,6.70
2023-05-10T18:49:26.413Z,5.72
2023-05-10T18:52:27.722Z,4.37
2023-05-10T18:55:29.040Z,4.85
2023-05-10T18:58:30.364Z,4.47
2023-05-10T19:01:31.803Z,4.55
2023-05-10T19:04:33.673Z,5.90
2023-05-10T19:07:35.102Z,4.50
2023-05-10T19:10:36.409Z,6.10
2023-05-10T19:13:37.704Z,5.43
2023-05-10T19:16:41.624Z,4.65
2023-05-10T19:19:44.823Z,6.03
2023-05-10T19:23:02.187Z,5.87
2023-05-10T19:26:11.256Z,4.10
2023-05-10T19:29:13.393Z,3.42
2023-05-10T19:32:15.269Z,3.78
2023-05-10T19:35:17.024Z,5.20
2023-05-10T19:38:19.883Z,6.83
2023-05-10T19:41:21.443Z,5.57
2023-05-10T19:44:23.036Z,3.20
2023-05-10T19:47:24.477Z,5.90
2023-05-10T19:50:26.441Z,4.90
2023-05-10T19:53:27.869Z,5.43
2023-05-10T19:56:29.611Z,4.23
2023-05-10T19:59:31.045Z,4.45
2023-05-10T20:02:32.357Z,3.90
2023-05-10T20:05:33.800Z,5.75
2023-05-10T20:08:35.133Z,4.93
2023-05-10T20:11:36.870Z,4.07
2023-05-10T20:14:38.698Z,6.20
2023-05-10T20:17:40.169Z,5.00
2023-05-10T20:20:42.742Z,4.47
2023-05-10T20:23:44.539Z,4.38
2023-05-10T20:26:46.052Z,6.13
2023-05-10T20:29:47.383Z,5.35
2023-05-10T20:32:49.150Z,4.15
2023-05-10T20:35:50.852Z,3.80
2023-05-10T20:38:52.192Z,4.03
2023-05-10T20:41:53.512Z,4.60
2023-05-10T20:44:54.825Z,4.47
2023-05-10T20:47:56.333Z,4.13
2023-05-10T20:50:57.656Z,3.65
2023-05-10T20:53:58.951Z,3.97
2023-05-10T20:57:00.276Z,3.73
2023-05-10T21:00:01.588Z,4.55
2023-05-10T21:03:02.908Z,4.18
2023-05-10T21:06:04.242Z,3.63
2023-05-10T21:09:05.527Z,3.60
2023-05-10T21:12:06.846Z,3.97
2023-05-10T21:15:08.163Z,4.63
2023-05-10T21:18:09.460Z,5.47
2023-05-10T21:21:10.769Z,5.47
2023-05-10T21:24:12.080Z,4.78
2023-05-10T21:27:13.388Z,4.67
2023-05-10T21:30:14.855Z,4.13
2023-05-10T21:33:16.244Z,3.40
2023-05-10T21:36:17.650Z,5.32
2023-05-10T21:39:19.021Z,3.50
2023-05-10T21:42:20.350Z,4.93
2023-05-10T21:45:21.658Z,4.53
2023-05-10T21:48:22.984Z,3.42
2023-05-10T21:51:24.259Z,4.00
2023-05-10T21:54:25.564Z,4.80
2023-05-10T21:57:26.870Z,3.43
2023-05-10T22:00:28.164Z,3.47
2023-05-10T22:03:29.568Z,5.13
2023-05-10T22:06:30.918Z,4.70
2023-05-10T22:09:32.262Z,3.15
2023-05-10T22:12:33.576Z,4.93
2023-05-10T22:15:36.501Z,3.08
2023-05-10T22:18:38.131Z,3.80
2023-05-10T22:21:39.489Z,3.75
2023-05-10T22:24:40.802Z,3.28
2023-05-10T22:27:42.109Z,2.80
2023-05-10T22:30:43.418Z,4.18
2023-05-10T22:33:44.698Z,3.13
2023-05-10T22:36:45.996Z,4.82
2023-05-10T22:39:47.294Z,3.42
2023-05-10T22:42:48.639Z,4.23
2023-05-10T22:45:49.995Z,3.47
2023-05-10T22:48:51.308Z,3.25
2023-05-10T22:51:52.654Z,2.80
2023-05-10T22:54:53.949Z,4.70
2023-05-10T22:57:55.244Z,5.50
2023-05-10T23:00:56.558Z,3.28
2023-05-10T23:03:57.855Z,2.95
2023-05-10T23:06:59.159Z,4.38
2023-05-10T23:10:00.467Z,3.20
2023-05-10T23:13:01.774Z,3.43
2023-05-10T23:16:03.087Z,3.83
2023-05-10T23:19:04.598Z,2.90
2023-05-10T23:22:05.957Z,2.88
2023-05-10T23:25:07.268Z,3.70
2023-05-10T23:28:08.599Z,3.37
2023-05-10T23:31:09.889Z,3.58
2023-05-10T23:34:11.214Z,3.78
2023-05-10T23:37:12.510Z,4.13
2023-05-10T23:40:13.799Z,5.07
2023-05-10T23:43:15.125Z,3.30
2023-05-10T23:46:16.453Z,3.25
2023-05-10T23:49:17.839Z,2.80
2023-05-10T23:52:19.134Z,3.05
2023-05-10T23:55:23.388Z,3.13
2023-05-10T23:58:24.695Z,3.47
